Almyra, AR (72003)

5:22 AM CDT on March 27, 2015 (GMT -0500)
Court Square | | Change Station
CLOSE
Current Station
Personal Weather Station
Location: De Witt, AR
Elevation: 197 ft
Nearby Weather Stations

Elev 197 ft 34.30 °N, 91.33 °W | Updated 3 seconds ago

Clear
Clear
39.4 °F
Feels Like 39 °F
N
0.0
Wind Variable Wind from North
Gusts 0.4 mph

Today
High -- | Low -- °F
--% Chance of Precip.
Yesterday
High -- | Low -- °F
Precip. -- in
6:59 AM 7:22 PM
Waxing Crescent, 51% visible
Pressure 30.08 in
Visibility 10.0 miles
Clouds Overcast 10000 ft
Windchill 39 °F
Dew Point 34 °F
Humidity 81%
Rainfall 0.00 in
Snow Depth Not available.
UV 0 out of 12
Pollen 7.50 out of 12
Air Quality Not available.
Flu Activity Not available.
METAR KSGT 271015Z AUTO 31003KT 10SM OVC100 06/04 A3008 RMK AO1

More Conditions Fewer Conditions

Pressure 30.08 in
Visibility 10.0 miles
Clouds Overcast 10000 ft
Windchill 39 °F
Dew Point 34 °F
Humidity 81%
Rainfall 0.00 in
Snow Depth Not available.
UV 0 out of 12
Pollen 7.50 out of 12
Air Quality Not available.
Flu Activity Not available.
METAR KSGT 271015Z AUTO 31003KT 10SM OVC100 06/04 A3008 RMK AO1

More Conditions Fewer Conditions

10-Day Weather Forecast

Almanac

Astronomy

Mar. 27, 2015 Rise Set
Actual Time
Civil Twilight
Nautical Twilight
Astronomical Twilight
Moon
Length of Visible Light
Length of Day
Tomorrow will be .
, % of the Moon is Illuminated

Today's Extremes

State Highs State Lows

Community

WunderPhotos

Upload Photos

1,808,706 photos uploaded!

WunderBlogs® & News

Nearby

Air Quality

  Air Quality AQ Index Pollutant
Not available.

Snow Depth

Station Depth Elevation

Earthquake Activity

City Distance Mag. Time & Date
Minimum magnitude displayed is 2.5.

Coastal Water Temperatures

Place Temperature

Stations

Nearby Weather Stations

Station Location Temp. Windchill Dew Point Humidity Wind Precip. Elev Updated Type